KTSP/TSP METAR and TAF weather

Enter ICAO airport designator
Station Type Date Time Source
KTSP METAR 2021/07/26 15:55 UTC NOAA

KTSP 261555Z AUTO 14008G15KT 10SM CLR 24/10 A3009 RMK AO2


Station Type Date Time Source
KTSP Decoded METAR 2021/07/26 15:55 UTC NOAA

Station name not available
Jul 26, 2021 - 11:55 AM EDT / 2021.07.26 1555 UTC
Wind: from the SE (140 degrees) at 9 MPH (8 KT) gusting to 17 MPH (15 KT):0
Visibility: 10 mile(s):0
Sky conditions: clear
Temperature: 75 F (24 C)
Dew Point: 50 F (10 C)
Relative Humidity: 41%
Pressure (altimeter): 30.09 in. Hg (1018 hPa)
ob: KTSP 261555Z AUTO 14008G15KT 10SM CLR 24/10 A3009 RMK AO2
cycle: 16

Station Type Date Time Source
KTSP TAF UTC NOAA

Error!

Example: see airport list